sensor_id;sensor_type;location;lat;lon;timestamp;P1;durP1;ratioP1;P2;durP2;ratioP2
29570;SDS011;16814;52.118;11.436;2023-07-09T00:01:49;9.13;;;4.30;;
29570;SDS011;16814;52.118;11.436;2023-07-09T00:04:17;6.20;;;4.07;;
29570;SDS011;16814;52.118;11.436;2023-07-09T00:06:43;10.07;;;4.30;;
29570;SDS011;16814;52.118;11.436;2023-07-09T00:09:14;11.13;;;4.40;;
29570;SDS011;16814;52.118;11.436;2023-07-09T00:11:42;8.10;;;4.50;;
29570;SDS011;16814;52.118;11.436;2023-07-09T00:14:09;9.70;;;4.43;;
29570;SDS011;16814;52.118;11.436;2023-07-09T00:16:36;10.20;;;5.18;;
29570;SDS011;16814;52.118;11.436;2023-07-09T00:19:02;9.10;;;4.32;;
29570;SDS011;16814;52.118;11.436;2023-07-09T00:21:28;6.53;;;4.53;;
29570;SDS011;16814;52.118;11.436;2023-07-09T00:23:59;9.38;;;4.85;;
29570;SDS011;16814;52.118;11.436;2023-07-09T00:26:29;10.70;;;4.80;;
29570;SDS011;16814;52.118;11.436;2023-07-09T00:28:59;7.22;;;4.50;;
29570;SDS011;16814;52.118;11.436;2023-07-09T00:31:25;7.00;;;4.25;;
29570;SDS011;16814;52.118;11.436;2023-07-09T00:33:51;8.40;;;4.28;;
29570;SDS011;16814;52.118;11.436;2023-07-09T00:36:26;7.60;;;4.10;;
29570;SDS011;16814;52.118;11.436;2023-07-09T00:38:55;7.72;;;4.30;;
29570;SDS011;16814;52.118;11.436;2023-07-09T00:41:24;11.02;;;4.68;;
29570;SDS011;16814;52.118;11.436;2023-07-09T00:43:51;9.70;;;4.50;;
29570;SDS011;16814;52.118;11.436;2023-07-09T00:48:49;11.32;;;4.53;;
29570;SDS011;16814;52.118;11.436;2023-07-09T00:51:25;10.73;;;4.63;;
29570;SDS011;16814;52.118;11.436;2023-07-09T00:53:54;7.15;;;4.40;;
29570;SDS011;16814;52.118;11.436;2023-07-09T00:56:27;9.60;;;4.20;;
29570;SDS011;16814;52.118;11.436;2023-07-09T00:58:59;9.00;;;4.28;;
29570;SDS011;16814;52.118;11.436;2023-07-09T01:01:29;11.97;;;4.47;;
29570;SDS011;16814;52.118;11.436;2023-07-09T01:03:56;8.45;;;4.32;;
29570;SDS011;16814;52.118;11.436;2023-07-09T01:06:28;8.90;;;4.18;;
29570;SDS011;16814;52.118;11.436;2023-07-09T01:09:07;9.77;;;4.47;;
29570;SDS011;16814;52.118;11.436;2023-07-09T01:11:33;6.50;;;4.30;;
29570;SDS011;16814;52.118;11.436;2023-07-09T01:14:00;6.73;;;4.63;;
29570;SDS011;16814;52.118;11.436;2023-07-09T01:16:33;7.03;;;4.68;;
29570;SDS011;16814;52.118;11.436;2023-07-09T01:19:02;9.93;;;4.57;;
29570;SDS011;16814;52.118;11.436;2023-07-09T01:21:29;7.22;;;4.72;;
29570;SDS011;16814;52.118;11.436;2023-07-09T01:23:55;12.83;;;4.70;;
29570;SDS011;16814;52.118;11.436;2023-07-09T01:26:23;9.65;;;4.50;;
29570;SDS011;16814;52.118;11.436;2023-07-09T01:28:51;8.77;;;4.50;;
29570;SDS011;16814;52.118;11.436;2023-07-09T01:31:17;8.37;;;4.17;;
29570;SDS011;16814;52.118;11.436;2023-07-09T01:33:43;8.75;;;4.47;;
29570;SDS011;16814;52.118;11.436;2023-07-09T01:36:10;11.20;;;4.15;;
29570;SDS011;16814;52.118;11.436;2023-07-09T01:38:38;8.57;;;4.18;;
29570;SDS011;16814;52.118;11.436;2023-07-09T01:41:04;9.40;;;4.43;;
29570;SDS011;16814;52.118;11.436;2023-07-09T01:43:31;6.93;;;4.47;;
29570;SDS011;16814;52.118;11.436;2023-07-09T01:45:57;12.80;;;4.70;;
29570;SDS011;16814;52.118;11.436;2023-07-09T01:48:24;8.15;;;4.22;;
29570;SDS011;16814;52.118;11.436;2023-07-09T01:50:50;8.30;;;4.50;;
29570;SDS011;16814;52.118;11.436;2023-07-09T01:53:21;9.90;;;5.17;;
29570;SDS011;16814;52.118;11.436;2023-07-09T01:55:50;10.35;;;4.70;;
29570;SDS011;16814;52.118;11.436;2023-07-09T01:58:16;10.20;;;4.27;;
29570;SDS011;16814;52.118;11.436;2023-07-09T02:00:42;7.80;;;4.35;;
29570;SDS011;16814;52.118;11.436;2023-07-09T02:03:09;7.97;;;4.78;;
29570;SDS011;16814;52.118;11.436;2023-07-09T02:05:35;7.80;;;4.25;;
29570;SDS011;16814;52.118;11.436;2023-07-09T02:08:01;10.73;;;4.30;;
29570;SDS011;16814;52.118;11.436;2023-07-09T02:10:28;7.57;;;4.80;;
29570;SDS011;16814;52.118;11.436;2023-07-09T02:12:53;10.13;;;4.82;;
29570;SDS011;16814;52.118;11.436;2023-07-09T02:15:19;11.00;;;4.37;;
29570;SDS011;16814;52.118;11.436;2023-07-09T02:17:44;7.57;;;4.60;;
29570;SDS011;16814;52.118;11.436;2023-07-09T02:20:10;8.53;;;4.63;;
29570;SDS011;16814;52.118;11.436;2023-07-09T02:22:37;8.50;;;4.60;;
29570;SDS011;16814;52.118;11.436;2023-07-09T02:25:04;8.80;;;4.53;;
29570;SDS011;16814;52.118;11.436;2023-07-09T02:27:34;12.57;;;4.57;;
29570;SDS011;16814;52.118;11.436;2023-07-09T02:30:00;7.57;;;4.43;;
29570;SDS011;16814;52.118;11.436;2023-07-09T02:32:27;6.87;;;4.13;;
29570;SDS011;16814;52.118;11.436;2023-07-09T02:34:53;10.07;;;4.07;;
29570;SDS011;16814;52.118;11.436;2023-07-09T02:37:20;7.35;;;4.45;;
29570;SDS011;16814;52.118;11.436;2023-07-09T02:39:47;7.27;;;4.30;;
29570;SDS011;16814;52.118;11.436;2023-07-09T02:42:13;7.97;;;4.28;;
29570;SDS011;16814;52.118;11.436;2023-07-09T02:44:41;13.73;;;5.00;;
29570;SDS011;16814;52.118;11.436;2023-07-09T02:47:06;10.83;;;4.87;;
29570;SDS011;16814;52.118;11.436;2023-07-09T02:49:33;11.37;;;4.60;;
29570;SDS011;16814;52.118;11.436;2023-07-09T02:51:59;9.75;;;4.72;;
29570;SDS011;16814;52.118;11.436;2023-07-09T02:54:25;11.88;;;5.10;;
29570;SDS011;16814;52.118;11.436;2023-07-09T02:56:51;8.32;;;4.72;;
29570;SDS011;16814;52.118;11.436;2023-07-09T02:59:16;9.17;;;4.87;;
29570;SDS011;16814;52.118;11.436;2023-07-09T03:01:42;12.07;;;4.80;;
29570;SDS011;16814;52.118;11.436;2023-07-09T03:04:08;13.20;;;4.90;;
29570;SDS011;16814;52.118;11.436;2023-07-09T03:06:35;8.43;;;4.72;;
29570;SDS011;16814;52.118;11.436;2023-07-09T03:09:01;7.73;;;4.37;;
29570;SDS011;16814;52.118;11.436;2023-07-09T03:11:30;8.45;;;4.93;;
29570;SDS011;16814;52.118;11.436;2023-07-09T03:14:00;7.53;;;4.78;;
29570;SDS011;16814;52.118;11.436;2023-07-09T03:16:27;8.57;;;4.47;;
29570;SDS011;16814;52.118;11.436;2023-07-09T03:18:55;8.60;;;4.65;;
29570;SDS011;16814;52.118;11.436;2023-07-09T03:21:21;7.97;;;4.68;;
29570;SDS011;16814;52.118;11.436;2023-07-09T03:23:48;15.18;;;5.35;;
29570;SDS011;16814;52.118;11.436;2023-07-09T03:26:13;12.07;;;4.77;;
29570;SDS011;16814;52.118;11.436;2023-07-09T03:28:40;8.75;;;4.75;;
29570;SDS011;16814;52.118;11.436;2023-07-09T03:31:05;7.00;;;4.60;;
29570;SDS011;16814;52.118;11.436;2023-07-09T03:33:31;8.60;;;4.97;;
29570;SDS011;16814;52.118;11.436;2023-07-09T03:35:56;13.13;;;5.10;;
29570;SDS011;16814;52.118;11.436;2023-07-09T03:38:22;11.82;;;4.85;;
29570;SDS011;16814;52.118;11.436;2023-07-09T03:40:51;9.23;;;4.70;;
29570;SDS011;16814;52.118;11.436;2023-07-09T03:43:17;10.70;;;4.83;;
29570;SDS011;16814;52.118;11.436;2023-07-09T03:45:43;11.77;;;5.60;;
29570;SDS011;16814;52.118;11.436;2023-07-09T03:48:10;7.75;;;5.13;;
29570;SDS011;16814;52.118;11.436;2023-07-09T03:50:35;10.73;;;5.07;;
29570;SDS011;16814;52.118;11.436;2023-07-09T03:53:01;10.70;;;5.37;;
29570;SDS011;16814;52.118;11.436;2023-07-09T03:55:27;9.80;;;5.50;;
29570;SDS011;16814;52.118;11.436;2023-07-09T03:57:53;9.77;;;5.20;;
29570;SDS011;16814;52.118;11.436;2023-07-09T04:00:20;11.15;;;6.00;;
29570;SDS011;16814;52.118;11.436;2023-07-09T04:02:45;7.87;;;5.20;;
29570;SDS011;16814;52.118;11.436;2023-07-09T04:05:11;9.93;;;6.03;;
29570;SDS011;16814;52.118;11.436;2023-07-09T04:07:37;8.52;;;5.07;;
29570;SDS011;16814;52.118;11.436;2023-07-09T04:10:03;15.57;;;5.63;;
29570;SDS011;16814;52.118;11.436;2023-07-09T04:12:29;16.17;;;5.43;;
29570;SDS011;16814;52.118;11.436;2023-07-09T04:14:55;8.20;;;5.33;;
29570;SDS011;16814;52.118;11.436;2023-07-09T04:17:21;8.70;;;5.37;;
29570;SDS011;16814;52.118;11.436;2023-07-09T04:19:50;9.18;;;5.90;;
29570;SDS011;16814;52.118;11.436;2023-07-09T04:22:16;9.70;;;5.50;;
29570;SDS011;16814;52.118;11.436;2023-07-09T04:24:42;9.17;;;5.20;;
29570;SDS011;16814;52.118;11.436;2023-07-09T04:27:08;9.13;;;4.93;;
29570;SDS011;16814;52.118;11.436;2023-07-09T04:29:34;8.70;;;4.82;;
29570;SDS011;16814;52.118;11.436;2023-07-09T04:32:01;9.40;;;5.15;;
29570;SDS011;16814;52.118;11.436;2023-07-09T04:34:27;8.63;;;4.83;;
29570;SDS011;16814;52.118;11.436;2023-07-09T04:36:53;10.00;;;5.30;;
29570;SDS011;16814;52.118;11.436;2023-07-09T04:39:18;7.70;;;5.18;;
29570;SDS011;16814;52.118;11.436;2023-07-09T04:41:44;10.57;;;5.30;;
29570;SDS011;16814;52.118;11.436;2023-07-09T04:44:10;10.67;;;5.03;;
29570;SDS011;16814;52.118;11.436;2023-07-09T04:46:35;8.23;;;5.43;;
29570;SDS011;16814;52.118;11.436;2023-07-09T04:49:01;7.70;;;5.38;;
29570;SDS011;16814;52.118;11.436;2023-07-09T04:51:26;8.65;;;4.90;;
29570;SDS011;16814;52.118;11.436;2023-07-09T04:53:52;8.97;;;4.87;;
29570;SDS011;16814;52.118;11.436;2023-07-09T04:56:18;10.55;;;5.43;;
29570;SDS011;16814;52.118;11.436;2023-07-09T04:58:43;9.15;;;4.78;;
29570;SDS011;16814;52.118;11.436;2023-07-09T05:01:09;10.77;;;5.77;;
29570;SDS011;16814;52.118;11.436;2023-07-09T05:03:35;10.38;;;5.47;;
29570;SDS011;16814;52.118;11.436;2023-07-09T05:06:01;9.85;;;5.05;;
29570;SDS011;16814;52.118;11.436;2023-07-09T05:08:27;13.17;;;5.10;;
29570;SDS011;16814;52.118;11.436;2023-07-09T05:10:52;10.23;;;5.22;;
29570;SDS011;16814;52.118;11.436;2023-07-09T05:13:18;9.68;;;5.35;;
29570;SDS011;16814;52.118;11.436;2023-07-09T05:15:45;8.18;;;5.00;;
29570;SDS011;16814;52.118;11.436;2023-07-09T05:18:12;9.50;;;5.00;;
29570;SDS011;16814;52.118;11.436;2023-07-09T05:20:39;9.37;;;5.23;;
29570;SDS011;16814;52.118;11.436;2023-07-09T05:23:06;10.48;;;4.95;;
29570;SDS011;16814;52.118;11.436;2023-07-09T05:25:33;11.43;;;4.93;;
29570;SDS011;16814;52.118;11.436;2023-07-09T05:27:58;11.00;;;5.20;;
29570;SDS011;16814;52.118;11.436;2023-07-09T05:30:24;10.70;;;5.00;;
29570;SDS011;16814;52.118;11.436;2023-07-09T05:32:50;10.27;;;5.25;;
29570;SDS011;16814;52.118;11.436;2023-07-09T05:35:18;8.35;;;4.97;;
29570;SDS011;16814;52.118;11.436;2023-07-09T05:37:44;10.47;;;4.67;;
29570;SDS011;16814;52.118;11.436;2023-07-09T05:40:10;8.73;;;4.93;;
29570;SDS011;16814;52.118;11.436;2023-07-09T05:42:35;9.55;;;4.57;;
29570;SDS011;16814;52.118;11.436;2023-07-09T05:45:01;7.80;;;4.40;;
29570;SDS011;16814;52.118;11.436;2023-07-09T05:47:27;8.80;;;4.50;;
29570;SDS011;16814;52.118;11.436;2023-07-09T05:49:52;9.00;;;4.63;;
29570;SDS011;16814;52.118;11.436;2023-07-09T05:52:18;11.93;;;4.35;;
29570;SDS011;16814;52.118;11.436;2023-07-09T05:54:48;7.60;;;4.43;;
29570;SDS011;16814;52.118;11.436;2023-07-09T05:57:14;9.95;;;4.65;;
29570;SDS011;16814;52.118;11.436;2023-07-09T05:59:40;10.23;;;4.82;;
29570;SDS011;16814;52.118;11.436;2023-07-09T06:02:16;11.10;;;4.75;;
29570;SDS011;16814;52.118;11.436;2023-07-09T06:04:43;7.53;;;4.68;;
29570;SDS011;16814;52.118;11.436;2023-07-09T06:07:10;8.30;;;4.40;;
29570;SDS011;16814;52.118;11.436;2023-07-09T06:09:38;7.13;;;4.82;;
29570;SDS011;16814;52.118;11.436;2023-07-09T06:12:04;7.07;;;4.80;;
29570;SDS011;16814;52.118;11.436;2023-07-09T06:14:31;10.20;;;4.75;;
29570;SDS011;16814;52.118;11.436;2023-07-09T06:16:57;7.97;;;4.65;;
29570;SDS011;16814;52.118;11.436;2023-07-09T06:19:23;9.57;;;4.28;;
29570;SDS011;16814;52.118;11.436;2023-07-09T06:21:49;10.03;;;4.77;;
29570;SDS011;16814;52.118;11.436;2023-07-09T06:24:15;7.97;;;4.57;;
29570;SDS011;16814;52.118;11.436;2023-07-09T06:26:40;7.60;;;4.80;;
29570;SDS011;16814;52.118;11.436;2023-07-09T06:29:06;7.35;;;4.57;;
29570;SDS011;16814;52.118;11.436;2023-07-09T06:31:32;10.63;;;4.78;;
29570;SDS011;16814;52.118;11.436;2023-07-09T06:33:57;7.27;;;4.90;;
29570;SDS011;16814;52.118;11.436;2023-07-09T06:36:23;12.20;;;4.60;;
29570;SDS011;16814;52.118;11.436;2023-07-09T06:38:49;7.73;;;4.80;;
29570;SDS011;16814;52.118;11.436;2023-07-09T06:41:15;8.80;;;4.80;;
29570;SDS011;16814;52.118;11.436;2023-07-09T06:43:41;7.40;;;4.80;;
29570;SDS011;16814;52.118;11.436;2023-07-09T06:46:08;8.07;;;4.83;;
29570;SDS011;16814;52.118;11.436;2023-07-09T06:48:36;11.65;;;4.65;;
29570;SDS011;16814;52.118;11.436;2023-07-09T06:51:02;7.97;;;4.95;;
29570;SDS011;16814;52.118;11.436;2023-07-09T06:53:29;8.63;;;5.53;;
29570;SDS011;16814;52.118;11.436;2023-07-09T06:55:55;7.18;;;4.78;;
29570;SDS011;16814;52.118;11.436;2023-07-09T06:58:24;6.25;;;4.50;;
29570;SDS011;16814;52.118;11.436;2023-07-09T07:00:52;6.45;;;4.40;;
29570;SDS011;16814;52.118;11.436;2023-07-09T07:03:19;10.77;;;5.00;;
29570;SDS011;16814;52.118;11.436;2023-07-09T07:05:45;8.27;;;4.88;;
29570;SDS011;16814;52.118;11.436;2023-07-09T07:08:15;11.02;;;5.15;;
29570;SDS011;16814;52.118;11.436;2023-07-09T07:10:42;7.60;;;4.73;;
29570;SDS011;16814;52.118;11.436;2023-07-09T07:13:08;7.25;;;5.15;;
29570;SDS011;16814;52.118;11.436;2023-07-09T07:15:36;8.10;;;5.00;;
29570;SDS011;16814;52.118;11.436;2023-07-09T07:18:02;6.53;;;4.95;;
29570;SDS011;16814;52.118;11.436;2023-07-09T07:20:29;10.03;;;5.17;;
29570;SDS011;16814;52.118;11.436;2023-07-09T07:22:54;8.80;;;5.10;;
29570;SDS011;16814;52.118;11.436;2023-07-09T07:25:21;9.32;;;4.70;;
29570;SDS011;16814;52.118;11.436;2023-07-09T07:27:46;8.85;;;4.97;;
29570;SDS011;16814;52.118;11.436;2023-07-09T07:30:12;8.07;;;5.10;;
29570;SDS011;16814;52.118;11.436;2023-07-09T07:32:39;7.28;;;5.10;;
29570;SDS011;16814;52.118;11.436;2023-07-09T07:35:09;7.68;;;5.30;;
29570;SDS011;16814;52.118;11.436;2023-07-09T07:37:35;7.83;;;5.40;;
29570;SDS011;16814;52.118;11.436;2023-07-09T07:40:00;8.17;;;4.77;;
29570;SDS011;16814;52.118;11.436;2023-07-09T07:42:27;10.93;;;5.17;;
29570;SDS011;16814;52.118;11.436;2023-07-09T07:44:52;8.00;;;4.80;;
29570;SDS011;16814;52.118;11.436;2023-07-09T07:47:18;8.80;;;5.00;;
29570;SDS011;16814;52.118;11.436;2023-07-09T07:49:44;8.90;;;4.80;;
29570;SDS011;16814;52.118;11.436;2023-07-09T07:52:10;10.60;;;5.38;;
29570;SDS011;16814;52.118;11.436;2023-07-09T07:54:35;10.85;;;5.13;;
29570;SDS011;16814;52.118;11.436;2023-07-09T07:57:02;6.93;;;4.90;;
29570;SDS011;16814;52.118;11.436;2023-07-09T07:59:28;9.07;;;5.20;;
29570;SDS011;16814;52.118;11.436;2023-07-09T08:01:56;9.20;;;4.88;;
29570;SDS011;16814;52.118;11.436;2023-07-09T08:04:21;6.17;;;4.43;;
29570;SDS011;16814;52.118;11.436;2023-07-09T08:06:47;9.10;;;4.73;;
29570;SDS011;16814;52.118;11.436;2023-07-09T08:09:12;12.57;;;5.67;;
29570;SDS011;16814;52.118;11.436;2023-07-09T08:11:38;11.27;;;4.93;;
29570;SDS011;16814;52.118;11.436;2023-07-09T08:14:04;8.73;;;5.33;;
29570;SDS011;16814;52.118;11.436;2023-07-09T08:16:29;8.47;;;5.37;;
29570;SDS011;16814;52.118;11.436;2023-07-09T08:18:55;9.27;;;4.73;;
29570;SDS011;16814;52.118;11.436;2023-07-09T08:21:21;6.37;;;5.07;;
29570;SDS011;16814;52.118;11.436;2023-07-09T08:23:46;8.10;;;4.87;;
29570;SDS011;16814;52.118;11.436;2023-07-09T08:26:12;9.97;;;4.90;;
29570;SDS011;16814;52.118;11.436;2023-07-09T08:28:38;12.15;;;5.28;;
29570;SDS011;16814;52.118;11.436;2023-07-09T08:31:03;13.75;;;5.05;;
29570;SDS011;16814;52.118;11.436;2023-07-09T08:33:29;9.43;;;5.10;;
29570;SDS011;16814;52.118;11.436;2023-07-09T08:35:55;8.98;;;5.00;;
29570;SDS011;16814;52.118;11.436;2023-07-09T08:38:21;7.97;;;5.00;;
29570;SDS011;16814;52.118;11.436;2023-07-09T08:41:00;13.00;;;5.53;;
29570;SDS011;16814;52.118;11.436;2023-07-09T08:43:34;9.77;;;4.77;;
29570;SDS011;16814;52.118;11.436;2023-07-09T08:46:10;11.95;;;5.30;;
29570;SDS011;16814;52.118;11.436;2023-07-09T08:48:44;9.23;;;4.82;;
29570;SDS011;16814;52.118;11.436;2023-07-09T08:53:46;7.07;;;4.80;;
29570;SDS011;16814;52.118;11.436;2023-07-09T08:56:16;8.23;;;4.83;;
29570;SDS011;16814;52.118;11.436;2023-07-09T08:58:42;5.60;;;4.45;;
29570;SDS011;16814;52.118;11.436;2023-07-09T09:01:14;8.50;;;4.70;;
29570;SDS011;16814;52.118;11.436;2023-07-09T09:03:48;7.57;;;4.93;;
29570;SDS011;16814;52.118;11.436;2023-07-09T09:06:22;12.10;;;4.85;;
29570;SDS011;16814;52.118;11.436;2023-07-09T09:11:28;7.73;;;4.30;;
29570;SDS011;16814;52.118;11.436;2023-07-09T09:16:55;6.93;;;4.38;;
29570;SDS011;16814;52.118;11.436;2023-07-09T09:19:23;5.90;;;4.10;;
29570;SDS011;16814;52.118;11.436;2023-07-09T09:22:15;8.45;;;4.45;;
29570;SDS011;16814;52.118;11.436;2023-07-09T09:27:16;9.27;;;4.72;;
29570;SDS011;16814;52.118;11.436;2023-07-09T09:29:41;6.60;;;4.80;;
29570;SDS011;16814;52.118;11.436;2023-07-09T09:32:26;8.73;;;4.20;;
29570;SDS011;16814;52.118;11.436;2023-07-09T09:34:53;5.68;;;4.30;;
29570;SDS011;16814;52.118;11.436;2023-07-09T09:39:52;6.97;;;4.45;;
29570;SDS011;16814;52.118;11.436;2023-07-09T09:42:18;10.15;;;4.82;;
29570;SDS011;16814;52.118;11.436;2023-07-09T09:44:44;6.40;;;4.07;;
29570;SDS011;16814;52.118;11.436;2023-07-09T09:47:10;11.85;;;4.53;;
29570;SDS011;16814;52.118;11.436;2023-07-09T09:49:40;13.90;;;5.10;;
29570;SDS011;16814;52.118;11.436;2023-07-09T09:52:10;7.22;;;4.45;;
29570;SDS011;16814;52.118;11.436;2023-07-09T09:54:39;6.07;;;4.05;;
29570;SDS011;16814;52.118;11.436;2023-07-09T09:57:15;7.07;;;4.13;;
29570;SDS011;16814;52.118;11.436;2023-07-09T09:59:44;6.85;;;4.55;;
29570;SDS011;16814;52.118;11.436;2023-07-09T10:02:19;13.60;;;5.85;;
29570;SDS011;16814;52.118;11.436;2023-07-09T10:04:49;12.93;;;5.53;;
29570;SDS011;16814;52.118;11.436;2023-07-09T10:07:22;10.13;;;5.35;;
29570;SDS011;16814;52.118;11.436;2023-07-09T10:09:54;13.30;;;5.20;;
29570;SDS011;16814;52.118;11.436;2023-07-09T10:14:56;5.75;;;4.28;;
29570;SDS011;16814;52.118;11.436;2023-07-09T10:22:53;6.05;;;3.65;;
29570;SDS011;16814;52.118;11.436;2023-07-09T10:25:45;6.07;;;3.53;;
29570;SDS011;16814;52.118;11.436;2023-07-09T10:28:35;8.25;;;3.92;;
29570;SDS011;16814;52.118;11.436;2023-07-09T10:31:21;10.93;;;3.63;;
29570;SDS011;16814;52.118;11.436;2023-07-09T10:39:42;10.68;;;3.85;;
29570;SDS011;16814;52.118;11.436;2023-07-09T10:42:18;9.38;;;3.60;;
29570;SDS011;16814;52.118;11.436;2023-07-09T10:44:54;10.02;;;3.85;;
29570;SDS011;16814;52.118;11.436;2023-07-09T10:47:29;6.47;;;3.90;;
29570;SDS011;16814;52.118;11.436;2023-07-09T10:49:55;5.47;;;3.60;;
29570;SDS011;16814;52.118;11.436;2023-07-09T10:52:32;7.82;;;4.00;;
29570;SDS011;16814;52.118;11.436;2023-07-09T10:57:52;7.93;;;3.70;;
29570;SDS011;16814;52.118;11.436;2023-07-09T11:00:35;10.03;;;3.70;;
29570;SDS011;16814;52.118;11.436;2023-07-09T11:03:19;7.75;;;3.83;;
29570;SDS011;16814;52.118;11.436;2023-07-09T11:05:49;5.18;;;3.50;;
29570;SDS011;16814;52.118;11.436;2023-07-09T11:08:20;6.57;;;3.70;;
29570;SDS011;16814;52.118;11.436;2023-07-09T11:10:52;7.38;;;3.80;;
29570;SDS011;16814;52.118;11.436;2023-07-09T11:13:35;7.20;;;3.75;;
29570;SDS011;16814;52.118;11.436;2023-07-09T11:16:06;7.45;;;3.70;;
29570;SDS011;16814;52.118;11.436;2023-07-09T11:18:34;7.00;;;4.00;;
29570;SDS011;16814;52.118;11.436;2023-07-09T11:23:46;8.53;;;3.80;;
29570;SDS011;16814;52.118;11.436;2023-07-09T11:26:23;5.97;;;3.75;;
29570;SDS011;16814;52.118;11.436;2023-07-09T11:29:17;9.60;;;4.30;;
29570;SDS011;16814;52.118;11.436;2023-07-09T11:31:44;7.40;;;4.20;;
29570;SDS011;16814;52.118;11.436;2023-07-09T11:34:16;5.72;;;3.70;;
29570;SDS011;16814;52.118;11.436;2023-07-09T11:39:22;7.60;;;3.70;;
29570;SDS011;16814;52.118;11.436;2023-07-09T11:41:57;7.20;;;4.25;;
29570;SDS011;16814;52.118;11.436;2023-07-09T11:46:55;6.25;;;4.00;;
29570;SDS011;16814;52.118;11.436;2023-07-09T11:52:36;5.97;;;3.90;;
29570;SDS011;16814;52.118;11.436;2023-07-09T11:55:16;5.97;;;3.70;;
29570;SDS011;16814;52.118;11.436;2023-07-09T11:58:03;9.40;;;7.03;;
29570;SDS011;16814;52.118;11.436;2023-07-09T12:00:46;4.85;;;3.47;;
29570;SDS011;16814;52.118;11.436;2023-07-09T12:03:15;6.97;;;3.60;;
29570;SDS011;16814;52.118;11.436;2023-07-09T12:05:58;6.18;;;3.47;;
29570;SDS011;16814;52.118;11.436;2023-07-09T12:08:32;5.50;;;3.53;;
29570;SDS011;16814;52.118;11.436;2023-07-09T12:11:03;8.38;;;3.90;;
29570;SDS011;16814;52.118;11.436;2023-07-09T12:13:36;7.17;;;3.87;;
29570;SDS011;16814;52.118;11.436;2023-07-09T12:16:02;6.40;;;3.90;;
29570;SDS011;16814;52.118;11.436;2023-07-09T12:18:28;8.70;;;4.00;;
29570;SDS011;16814;52.118;11.436;2023-07-09T12:20:55;7.20;;;3.97;;
29570;SDS011;16814;52.118;11.436;2023-07-09T12:23:27;7.90;;;4.15;;
29570;SDS011;16814;52.118;11.436;2023-07-09T12:25:56;8.02;;;4.07;;
29570;SDS011;16814;52.118;11.436;2023-07-09T12:28:25;7.15;;;3.92;;
29570;SDS011;16814;52.118;11.436;2023-07-09T12:30:52;7.50;;;3.88;;
29570;SDS011;16814;52.118;11.436;2023-07-09T12:33:19;5.90;;;4.05;;
29570;SDS011;16814;52.118;11.436;2023-07-09T12:35:52;5.47;;;3.90;;
29570;SDS011;16814;52.118;11.436;2023-07-09T12:38:26;7.97;;;4.20;;
29570;SDS011;16814;52.118;11.436;2023-07-09T12:40:54;9.85;;;4.45;;
29570;SDS011;16814;52.118;11.436;2023-07-09T12:43:30;8.85;;;4.15;;
29570;SDS011;16814;52.118;11.436;2023-07-09T12:45:57;6.75;;;4.07;;
29570;SDS011;16814;52.118;11.436;2023-07-09T12:48:25;7.97;;;4.07;;
29570;SDS011;16814;52.118;11.436;2023-07-09T12:50:54;7.80;;;4.30;;
29570;SDS011;16814;52.118;11.436;2023-07-09T12:53:23;7.43;;;4.40;;
29570;SDS011;16814;52.118;11.436;2023-07-09T12:55:51;6.30;;;4.20;;
29570;SDS011;16814;52.118;11.436;2023-07-09T12:58:23;15.02;;;4.80;;
29570;SDS011;16814;52.118;11.436;2023-07-09T13:00:54;15.07;;;4.23;;
29570;SDS011;16814;52.118;11.436;2023-07-09T13:03:22;8.80;;;4.27;;
29570;SDS011;16814;52.118;11.436;2023-07-09T13:05:52;12.70;;;4.57;;
29570;SDS011;16814;52.118;11.436;2023-07-09T13:08:26;7.18;;;4.07;;
29570;SDS011;16814;52.118;11.436;2023-07-09T13:10:54;8.25;;;4.32;;
29570;SDS011;16814;52.118;11.436;2023-07-09T13:13:21;6.45;;;4.13;;
29570;SDS011;16814;52.118;11.436;2023-07-09T13:15:52;5.90;;;4.30;;
29570;SDS011;16814;52.118;11.436;2023-07-09T13:18:26;7.07;;;4.57;;
29570;SDS011;16814;52.118;11.436;2023-07-09T13:20:54;8.68;;;4.32;;
29570;SDS011;16814;52.118;11.436;2023-07-09T13:23:24;10.82;;;4.57;;
29570;SDS011;16814;52.118;11.436;2023-07-09T13:25:51;8.40;;;4.40;;
29570;SDS011;16814;52.118;11.436;2023-07-09T13:33:39;9.85;;;4.88;;
29570;SDS011;16814;52.118;11.436;2023-07-09T13:36:06;7.07;;;4.67;;
29570;SDS011;16814;52.118;11.436;2023-07-09T13:38:31;7.43;;;4.38;;
29570;SDS011;16814;52.118;11.436;2023-07-09T13:40:59;10.02;;;4.45;;
29570;SDS011;16814;52.118;11.436;2023-07-09T13:43:30;8.70;;;4.53;;
29570;SDS011;16814;52.118;11.436;2023-07-09T13:45:59;6.88;;;4.40;;
29570;SDS011;16814;52.118;11.436;2023-07-09T13:48:29;7.07;;;4.50;;
29570;SDS011;16814;52.118;11.436;2023-07-09T13:50:56;10.35;;;4.80;;
29570;SDS011;16814;52.118;11.436;2023-07-09T13:53:27;10.83;;;4.80;;
29570;SDS011;16814;52.118;11.436;2023-07-09T13:55:55;8.73;;;4.72;;
29570;SDS011;16814;52.118;11.436;2023-07-09T13:58:21;8.30;;;4.90;;
29570;SDS011;16814;52.118;11.436;2023-07-09T14:00:49;8.85;;;4.35;;
29570;SDS011;16814;52.118;11.436;2023-07-09T14:03:22;8.15;;;4.45;;
29570;SDS011;16814;52.118;11.436;2023-07-09T14:05:50;9.20;;;4.72;;
29570;SDS011;16814;52.118;11.436;2023-07-09T14:08:16;10.30;;;4.80;;
29570;SDS011;16814;52.118;11.436;2023-07-09T14:10:42;6.38;;;4.45;;
29570;SDS011;16814;52.118;11.436;2023-07-09T14:13:14;5.95;;;4.45;;
29570;SDS011;16814;52.118;11.436;2023-07-09T14:15:43;10.68;;;4.70;;
29570;SDS011;16814;52.118;11.436;2023-07-09T14:18:19;7.30;;;4.70;;
29570;SDS011;16814;52.118;11.436;2023-07-09T14:20:46;8.75;;;4.80;;
29570;SDS011;16814;52.118;11.436;2023-07-09T14:23:13;8.63;;;4.70;;
29570;SDS011;16814;52.118;11.436;2023-07-09T14:25:41;6.85;;;4.35;;
29570;SDS011;16814;52.118;11.436;2023-07-09T14:28:12;10.65;;;4.30;;
29570;SDS011;16814;52.118;11.436;2023-07-09T14:30:41;9.73;;;4.40;;
29570;SDS011;16814;52.118;11.436;2023-07-09T14:33:11;8.80;;;4.85;;
29570;SDS011;16814;52.118;11.436;2023-07-09T14:35:39;9.20;;;5.20;;
29570;SDS011;16814;52.118;11.436;2023-07-09T14:38:06;10.70;;;4.97;;
29570;SDS011;16814;52.118;11.436;2023-07-09T14:40:45;7.72;;;4.35;;
29570;SDS011;16814;52.118;11.436;2023-07-09T14:43:11;9.43;;;4.68;;
29570;SDS011;16814;52.118;11.436;2023-07-09T14:45:37;8.87;;;4.73;;
29570;SDS011;16814;52.118;11.436;2023-07-09T14:48:13;7.65;;;4.40;;
29570;SDS011;16814;52.118;11.436;2023-07-09T14:50:41;8.85;;;4.90;;
29570;SDS011;16814;52.118;11.436;2023-07-09T14:53:14;7.78;;;4.63;;
29570;SDS011;16814;52.118;11.436;2023-07-09T14:55:51;6.45;;;4.43;;
29570;SDS011;16814;52.118;11.436;2023-07-09T14:58:18;7.97;;;4.65;;
29570;SDS011;16814;52.118;11.436;2023-07-09T15:00:46;11.43;;;4.47;;
29570;SDS011;16814;52.118;11.436;2023-07-09T15:03:18;9.25;;;4.50;;
29570;SDS011;16814;52.118;11.436;2023-07-09T15:05:50;13.57;;;4.80;;
29570;SDS011;16814;52.118;11.436;2023-07-09T15:08:17;7.50;;;4.60;;
29570;SDS011;16814;52.118;11.436;2023-07-09T15:10:46;12.73;;;4.68;;
29570;SDS011;16814;52.118;11.436;2023-07-09T15:13:16;12.27;;;4.50;;
29570;SDS011;16814;52.118;11.436;2023-07-09T15:15:50;10.52;;;4.57;;
29570;SDS011;16814;52.118;11.436;2023-07-09T15:18:15;8.20;;;4.80;;
29570;SDS011;16814;52.118;11.436;2023-07-09T15:20:44;9.20;;;4.72;;
29570;SDS011;16814;52.118;11.436;2023-07-09T15:23:14;8.03;;;4.40;;
29570;SDS011;16814;52.118;11.436;2023-07-09T15:25:39;7.90;;;4.40;;
29570;SDS011;16814;52.118;11.436;2023-07-09T15:28:05;7.33;;;4.60;;